createdAt,value
2023-05-23T00:01:18.355Z,100307.78
2023-05-23T00:04:20.263Z,100306.94
2023-05-23T00:07:21.906Z,100305.44
2023-05-23T00:10:23.440Z,100315.28
2023-05-23T00:13:25.037Z,100311.72
2023-05-23T00:16:26.884Z,100306.28
2023-05-23T00:19:28.564Z,100319.06
2023-05-23T00:22:30.381Z,100323.69
2023-05-23T00:25:34.305Z,100323.69
2023-05-23T00:28:36.939Z,100319.25
2023-05-23T00:31:38.494Z,100317.56
2023-05-23T00:34:40.220Z,100319.44
2023-05-23T00:37:41.773Z,100314.00
2023-05-23T00:40:43.430Z,100315.84
2023-05-23T00:43:45.104Z,100314.16
2023-05-23T00:46:51.745Z,100311.25
2023-05-23T00:49:53.448Z,100318.56
2023-05-23T00:52:57.172Z,100315.00
2023-05-23T00:55:58.773Z,100314.16
2023-05-23T00:59:01.015Z,100322.34
2023-05-23T01:02:02.975Z,100321.50
2023-05-23T01:05:04.968Z,100316.03
2023-05-23T01:08:08.026Z,100322.50
2023-05-23T01:11:30.246Z,100322.34
2023-05-23T01:15:04.392Z,100320.66
2023-05-23T01:18:30.615Z,100327.13
2023-05-23T01:21:34.122Z,100322.72
2023-05-23T01:24:54.800Z,100330.91
2023-05-23T01:31:03.665Z,100328.34
2023-05-23T01:34:06.726Z,100325.81
2023-05-23T01:37:11.921Z,100336.53
2023-05-23T01:40:13.559Z,100332.28
2023-05-23T01:43:15.575Z,100334.00
2023-05-23T01:46:17.995Z,100329.38
2023-05-23T01:49:22.826Z,100331.28
2023-05-23T01:52:25.162Z,100344.03
2023-05-23T01:55:27.514Z,100341.31
2023-05-23T01:58:30.007Z,100338.59
2023-05-23T02:01:33.468Z,100342.34
2023-05-23T02:04:35.098Z,100352.41
2023-05-23T02:07:36.960Z,100349.69
2023-05-23T02:10:38.481Z,100362.50
2023-05-23T02:13:40.006Z,100357.03
2023-05-23T02:16:41.646Z,100357.19
2023-05-23T02:19:43.248Z,100354.47
2023-05-23T02:22:44.805Z,100355.31
2023-05-23T02:25:46.364Z,100349.88
2023-05-23T02:28:47.864Z,100354.47
2023-05-23T02:31:50.966Z,100359.94
2023-05-23T02:34:53.753Z,100362.81
2023-05-23T02:37:56.712Z,100373.56
2023-05-23T02:40:58.439Z,100364.53
2023-05-23T02:43:59.959Z,100373.72
2023-05-23T02:47:02.065Z,100364.72
2023-05-23T02:50:03.905Z,100360.09
2023-05-23T02:53:06.300Z,100356.53
2023-05-23T02:56:08.702Z,100362.81
2023-05-23T02:59:12.176Z,100360.31
2023-05-23T03:02:13.700Z,100365.75
2023-05-23T03:05:15.296Z,100359.47
2023-05-23T03:08:16.904Z,100359.47
2023-05-23T03:11:18.445Z,100363.03
2023-05-23T03:14:20.009Z,100361.31
2023-05-23T03:17:21.968Z,100360.31
2023-05-23T03:20:23.588Z,100352.28
2023-05-23T03:23:25.288Z,100360.47
2023-05-23T03:26:27.186Z,100361.31
2023-05-23T03:29:28.926Z,100359.47
2023-05-23T03:32:30.692Z,100351.44
2023-05-23T03:35:32.398Z,100352.28
2023-05-23T03:38:34.036Z,100349.56
2023-05-23T03:41:35.647Z,100350.59
2023-05-23T03:44:37.457Z,100353.34
2023-05-23T03:47:40.984Z,100356.06
2023-05-23T03:50:42.907Z,100353.50
2023-05-23T03:53:46.084Z,100356.22
2023-05-23T03:56:49.127Z,100353.50
2023-05-23T03:59:50.901Z,100349.78
2023-05-23T04:02:53.397Z,100350.78
2023-05-23T04:06:00.906Z,100357.94
2023-05-23T04:09:03.357Z,100351.63
2023-05-23T04:12:09.383Z,100354.34
2023-05-23T04:15:11.514Z,100353.50
2023-05-23T04:18:23.418Z,100348.91
2023-05-23T04:21:25.402Z,100342.59
2023-05-23T04:24:44.421Z,100341.75
2023-05-23T04:27:47.260Z,100349.09
2023-05-23T04:30:51.986Z,100366.28
2023-05-23T04:33:57.797Z,100366.28
2023-05-23T04:37:02.937Z,100366.97
2023-05-23T04:40:07.278Z,100364.41
2023-05-23T04:43:18.010Z,100356.44
2023-05-23T04:46:26.520Z,100359.16
2023-05-23T04:49:48.579Z,100360.84
2023-05-23T04:52:50.602Z,100354.56
2023-05-23T04:55:52.253Z,100357.44
2023-05-23T04:58:54.680Z,100366.28
2023-05-23T05:01:56.721Z,100363.75
2023-05-23T05:04:58.254Z,100365.47
2023-05-23T05:07:59.891Z,100360.19
2023-05-23T05:11:01.488Z,100363.75
2023-05-23T05:14:03.130Z,100358.28
2023-05-23T05:17:04.912Z,100360.19
2023-05-23T05:20:15.285Z,100359.34
2023-05-23T05:23:17.640Z,100364.78
2023-05-23T05:26:19.524Z,100363.94
2023-05-23T05:29:21.335Z,100364.78
2023-05-23T05:32:23.051Z,100367.50
2023-05-23T05:35:25.072Z,100363.94
2023-05-23T05:38:26.749Z,100371.28
2023-05-23T05:41:28.415Z,100365.81
2023-05-23T05:44:30.006Z,100370.25
2023-05-23T05:47:32.770Z,100372.97
2023-05-23T05:50:34.657Z,100365.81
2023-05-23T05:53:37.183Z,100368.56
2023-05-23T05:56:39.892Z,100369.41
2023-05-23T05:59:41.926Z,100376.72
2023-05-23T06:02:43.615Z,100378.59
2023-05-23T06:05:45.314Z,100380.31
2023-05-23T06:08:46.906Z,100384.03
2023-05-23T06:11:52.039Z,100387.63
2023-05-23T06:14:53.769Z,100385.91
2023-05-23T06:17:55.459Z,100392.22
2023-05-23T06:20:58.886Z,100382.34
2023-05-23T06:24:01.049Z,100381.50
2023-05-23T06:27:02.560Z,100379.63
2023-05-23T06:30:05.695Z,100379.63
2023-05-23T06:33:07.268Z,100386.97
2023-05-23T06:36:08.885Z,100386.13
2023-05-23T06:39:10.413Z,100392.41
2023-05-23T06:42:12.197Z,100399.75
2023-05-23T06:45:40.626Z,100409.78
2023-05-23T06:48:43.976Z,100410.81
2023-05-23T06:51:45.677Z,100414.41
2023-05-23T06:54:47.332Z,100415.44
2023-05-23T06:57:52.041Z,100415.44
2023-05-23T07:00:55.692Z,100420.91
2023-05-23T07:04:01.190Z,100428.22
2023-05-23T07:07:02.854Z,100436.41
2023-05-23T07:10:04.869Z,100430.97
2023-05-23T07:13:06.917Z,100435.53
2023-05-23T07:16:08.829Z,100442.88
2023-05-23T07:19:18.362Z,100434.69
2023-05-23T07:22:23.339Z,100432.81
2023-05-23T07:25:24.958Z,100434.69
2023-05-23T07:28:26.599Z,100442.88
2023-05-23T07:31:29.940Z,100438.47
2023-05-23T07:34:33.771Z,100448.53
2023-05-23T07:37:36.672Z,100447.66
2023-05-23T07:40:40.437Z,100454.81
2023-05-23T07:43:42.556Z,100457.53
2023-05-23T07:46:44.329Z,100453.09
2023-05-23T07:49:47.502Z,100460.25
2023-05-23T07:52:51.263Z,100462.16
2023-05-23T07:55:58.779Z,100467.59
2023-05-23T07:59:05.610Z,100474.75
2023-05-23T08:02:07.243Z,100481.03
2023-05-23T08:05:09.922Z,100474.75
2023-05-23T08:08:12.333Z,100481.03
2023-05-23T08:11:14.891Z,100487.31
2023-05-23T08:14:21.646Z,100494.66
2023-05-23T08:17:40.279Z,100495.50
2023-05-23T08:20:43.344Z,100500.13
2023-05-23T08:23:45.047Z,100500.13
2023-05-23T08:26:46.913Z,100517.50
2023-05-23T08:29:49.887Z,100512.06
2023-05-23T08:32:53.291Z,100522.13
2023-05-23T08:35:54.886Z,100531.50
2023-05-23T08:38:57.452Z,100537.13
2023-05-23T08:42:03.315Z,100545.31
2023-05-23T08:45:05.246Z,100545.47
2023-05-23T08:48:13.461Z,100547.34
2023-05-23T08:51:19.047Z,100550.44
2023-05-23T08:54:22.885Z,100547.88
2023-05-23T08:57:25.740Z,100561.34
2023-05-23T09:00:33.352Z,100576.84
2023-05-23T09:03:37.548Z,100578.72
2023-05-23T09:07:05.403Z,100580.59
2023-05-23T09:10:08.896Z,100592.38
2023-05-23T09:13:10.481Z,100604.47
2023-05-23T09:16:17.780Z,100609.91
2023-05-23T09:19:29.900Z,100611.75
2023-05-23T09:22:37.757Z,100625.41
2023-05-23T09:25:47.277Z,100621.66
2023-05-23T09:28:49.492Z,100626.44
2023-05-23T09:31:51.096Z,100636.28
2023-05-23T09:34:59.608Z,100635.44
2023-05-23T09:38:01.832Z,100636.50
2023-05-23T09:41:05.400Z,100635.66
2023-05-23T09:44:09.007Z,100644.47
2023-05-23T09:47:10.576Z,100646.34
2023-05-23T09:50:13.074Z,100655.22
2023-05-23T09:53:14.658Z,100653.34
2023-05-23T09:56:17.327Z,100663.22
2023-05-23T09:59:24.215Z,100666.59
2023-05-23T10:02:37.717Z,100669.00
2023-05-23T10:05:48.861Z,100679.91
2023-05-23T10:08:57.000Z,100683.28
2023-05-23T10:12:32.505Z,100682.28
2023-05-23T10:15:40.900Z,100687.38
2023-05-23T10:18:44.631Z,100694.53
2023-05-23T10:21:50.947Z,100689.75
2023-05-23T10:24:52.879Z,100694.38
2023-05-23T10:28:00.931Z,100703.22
2023-05-23T10:31:04.316Z,100704.06
2023-05-23T10:34:34.901Z,100709.16
2023-05-23T10:37:41.001Z,100713.63
2023-05-23T10:40:57.509Z,100715.31
2023-05-23T10:44:20.430Z,100715.31
2023-05-23T10:47:28.874Z,100717.00
2023-05-23T10:50:38.254Z,100724.16
2023-05-23T10:53:54.573Z,100717.69
2023-05-23T10:57:05.972Z,100718.53
2023-05-23T11:00:14.079Z,100710.34
2023-05-23T11:03:17.322Z,100714.78
2023-05-23T11:06:44.586Z,100721.09
2023-05-23T11:10:12.575Z,100725.50
2023-05-23T11:13:14.157Z,100727.56
2023-05-23T11:16:39.720Z,100730.97
2023-05-23T11:19:56.921Z,100736.59
2023-05-23T11:23:03.484Z,100741.22
2023-05-23T11:26:05.082Z,100754.16
2023-05-23T11:29:10.067Z,100763.19
2023-05-23T11:32:17.304Z,100754.16
2023-05-23T11:35:21.361Z,100756.03
2023-05-23T11:38:23.141Z,100760.63
2023-05-23T11:41:24.636Z,100761.66
2023-05-23T11:44:26.206Z,100758.09
2023-05-23T11:47:27.773Z,100765.41
2023-05-23T11:50:30.770Z,100770.88
2023-05-23T11:53:32.998Z,100781.59
2023-05-23T11:56:39.796Z,100773.41
2023-05-23T11:59:42.328Z,100770.88
2023-05-23T12:02:45.583Z,100780.91
2023-05-23T12:05:47.207Z,100783.81
2023-05-23T12:08:48.770Z,100791.31
2023-05-23T12:11:51.079Z,100792.16
2023-05-23T12:14:56.311Z,100798.66
2023-05-23T12:17:58.231Z,100797.81
2023-05-23T12:21:01.391Z,100797.81
2023-05-23T12:24:21.077Z,100795.09
2023-05-23T12:27:30.039Z,100809.72
2023-05-23T12:30:42.611Z,100808.03
2023-05-23T12:33:45.994Z,100809.22
2023-05-23T12:36:50.703Z,100808.38
2023-05-23T12:39:55.002Z,100809.38
2023-05-23T12:42:57.087Z,100812.09
2023-05-23T12:45:58.600Z,100806.84
2023-05-23T12:49:00.117Z,100806.84
2023-05-23T12:52:01.717Z,100807.00
2023-05-23T12:55:03.997Z,100809.72
2023-05-23T12:58:05.517Z,100812.81
2023-05-23T13:01:07.152Z,100819.09
2023-05-23T13:04:08.809Z,100809.38
2023-05-23T13:07:10.376Z,100814.00
2023-05-23T13:10:11.940Z,100819.59
2023-05-23T13:13:13.509Z,100821.47
2023-05-23T13:16:15.837Z,100830.69
2023-05-23T13:19:17.506Z,100835.47
2023-05-23T13:22:19.060Z,100837.34
2023-05-23T13:25:20.950Z,100841.06
2023-05-23T13:28:22.521Z,100845.69
2023-05-23T13:31:24.134Z,100836.81
2023-05-23T13:34:27.117Z,100849.44
2023-05-23T13:37:28.679Z,100845.16
2023-05-23T13:40:30.293Z,100847.03
2023-05-23T13:43:31.815Z,100845.31
2023-05-23T13:46:33.382Z,100850.63
2023-05-23T13:49:34.916Z,100855.19
2023-05-23T13:52:36.464Z,100846.88
2023-05-23T13:55:37.989Z,100853.16
2023-05-23T13:58:39.506Z,100848.56
2023-05-23T14:01:41.395Z,100855.72
2023-05-23T14:04:42.974Z,100865.59
2023-05-23T14:07:47.407Z,100862.88
2023-05-23T14:10:49.108Z,100872.78
2023-05-23T14:13:50.639Z,100870.91
2023-05-23T14:16:52.783Z,100877.03
2023-05-23T14:19:54.394Z,100870.72
2023-05-23T14:22:55.931Z,100870.56
2023-05-23T14:25:57.453Z,100876.00
2023-05-23T14:28:58.983Z,100888.59
2023-05-23T14:32:02.714Z,100881.28
2023-05-23T14:35:05.851Z,100879.22
2023-05-23T14:38:07.509Z,100884.69
2023-05-23T14:41:09.090Z,100886.06
2023-05-23T14:44:10.622Z,100878.53
2023-05-23T14:47:12.155Z,100885.31
2023-05-23T14:50:13.832Z,100892.09
2023-05-23T14:53:15.857Z,100886.28
2023-05-23T14:56:17.555Z,100892.00
2023-05-23T14:59:19.164Z,100890.44
2023-05-23T15:02:20.820Z,100892.44
2023-05-23T15:05:22.444Z,100899.88
2023-05-23T15:08:24.008Z,100897.28
2023-05-23T15:11:27.422Z,100895.53
2023-05-23T15:14:31.990Z,100898.34
2023-05-23T15:17:34.116Z,100909.16
2023-05-23T15:20:36.744Z,100907.25
2023-05-23T15:23:38.277Z,100908.91
2023-05-23T15:26:39.760Z,100901.34
2023-05-23T15:29:41.447Z,100902.84
2023-05-23T15:32:43.024Z,100901.75
2023-05-23T15:35:44.627Z,100907.84
2023-05-23T15:38:46.176Z,100903.88
2023-05-23T15:41:47.756Z,100906.75
2023-05-23T15:44:49.326Z,100905.19
2023-05-23T15:47:50.866Z,100912.66
2023-05-23T15:50:52.408Z,100912.97
2023-05-23T15:56:58.502Z,100911.97
2023-05-23T16:00:00.206Z,100905.97
2023-05-23T16:03:01.956Z,100917.19
2023-05-23T16:06:04.351Z,100926.63
2023-05-23T16:09:05.973Z,100919.81
2023-05-23T16:12:08.004Z,100921.13
2023-05-23T16:15:10.024Z,100920.59
2023-05-23T16:18:11.651Z,100916.72
2023-05-23T16:21:13.150Z,100912.97
2023-05-23T16:24:16.910Z,100914.53
2023-05-23T16:27:18.458Z,100923.84
2023-05-23T16:30:20.168Z,100920.13
2023-05-23T16:33:21.729Z,100913.69
2023-05-23T16:36:23.302Z,100922.16
2023-05-23T16:39:24.957Z,100920.28
2023-05-23T16:42:26.526Z,100923.84
2023-05-23T16:45:28.163Z,100925.41
2023-05-23T16:48:29.744Z,100908.94
2023-05-23T16:51:31.928Z,100910.31
2023-05-23T16:54:33.512Z,100913.03
2023-05-23T16:57:35.064Z,100924.56
2023-05-23T17:00:36.601Z,100914.97
2023-05-23T17:03:38.328Z,100919.88
2023-05-23T17:06:39.868Z,100916.16
2023-05-23T17:09:41.487Z,100918.88
2023-05-23T17:12:43.013Z,100912.59
2023-05-23T17:15:44.763Z,100916.31
2023-05-23T17:18:46.592Z,100917.28
2023-05-23T17:21:48.982Z,100924.47
2023-05-23T17:24:50.517Z,100919.16
2023-05-23T17:27:52.081Z,100920.97
2023-05-23T17:30:53.712Z,100919.03
2023-05-23T17:33:55.275Z,100924.22
2023-05-23T17:36:57.025Z,100914.31
2023-05-23T17:39:58.565Z,100929.50
2023-05-23T17:43:00.161Z,100933.13
2023-05-23T17:46:01.747Z,100934.38
2023-05-23T17:49:03.284Z,100926.44
2023-05-23T17:52:06.775Z,100931.22
2023-05-23T17:55:08.989Z,100937.03
2023-05-23T17:58:10.509Z,100940.31
2023-05-23T18:01:13.341Z,100935.25
2023-05-23T18:04:15.100Z,100942.25
2023-05-23T18:07:19.317Z,100942.78
2023-05-23T18:10:20.863Z,100950.63
2023-05-23T18:13:22.429Z,100945.88
2023-05-23T18:16:23.986Z,100965.50
2023-05-23T18:19:25.585Z,100962.25
2023-05-23T18:22:27.178Z,100957.53
2023-05-23T18:25:28.934Z,100962.63
2023-05-23T18:28:30.651Z,100974.22
2023-05-23T18:31:32.251Z,100970.34
2023-05-23T18:34:33.807Z,100979.06
2023-05-23T18:37:35.320Z,100982.28
2023-05-23T18:40:37.363Z,100977.66
2023-05-23T18:43:38.931Z,100981.28
2023-05-23T18:46:40.474Z,100987.94
2023-05-23T18:49:42.040Z,100999.94
2023-05-23T18:52:43.663Z,101003.44
2023-05-23T18:55:45.220Z,101006.25
2023-05-23T18:58:47.305Z,101004.47
2023-05-23T19:01:49.018Z,101003.72
2023-05-23T19:04:51.491Z,101014.34
2023-05-23T19:07:53.022Z,101019.94
2023-05-23T19:10:54.560Z,101014.91
2023-05-23T19:13:56.064Z,101026.84
2023-05-23T19:16:58.293Z,101034.41
2023-05-23T19:19:59.917Z,101044.66
2023-05-23T19:23:01.525Z,101041.47
2023-05-23T19:26:03.039Z,101038.28
2023-05-23T19:29:04.574Z,101044.09
2023-05-23T19:32:06.427Z,101048.22
2023-05-23T19:35:08.379Z,101048.59
2023-05-23T19:38:10.110Z,101053.91
2023-05-23T19:41:11.702Z,101059.88
2023-05-23T19:44:13.578Z,101059.56
2023-05-23T19:47:15.103Z,101064.84
2023-05-23T19:50:16.618Z,101067.41
2023-05-23T19:53:18.202Z,101069.13
2023-05-23T19:56:22.011Z,101067.00
2023-05-23T19:59:23.592Z,101070.38
2023-05-23T20:02:25.151Z,101068.38
2023-05-23T20:05:27.406Z,101073.66
2023-05-23T20:08:28.968Z,101073.34
2023-05-23T20:11:30.937Z,101078.63
2023-05-23T20:14:32.566Z,101079.31
2023-05-23T20:17:35.676Z,101089.22
2023-05-23T20:20:37.294Z,101082.91
2023-05-23T20:23:40.924Z,101091.75
2023-05-23T20:26:42.657Z,101096.91
2023-05-23T20:29:44.207Z,101094.00
2023-05-23T20:32:45.979Z,101098.47
2023-05-23T20:35:48.378Z,101102.88
2023-05-23T20:38:50.272Z,101097.44
2023-05-23T20:41:51.821Z,101101.84
2023-05-23T20:44:54.261Z,101107.28
2023-05-23T20:47:55.790Z,101110.91
2023-05-23T20:50:58.199Z,101111.75
2023-05-23T20:53:59.913Z,101107.28
2023-05-23T20:57:02.542Z,101112.06
2023-05-23T21:00:14.010Z,101114.63
2023-05-23T21:03:15.953Z,101116.63
2023-05-23T21:06:17.644Z,101116.81
2023-05-23T21:09:19.640Z,101119.53
2023-05-23T21:12:21.346Z,101115.09
2023-05-23T21:15:22.972Z,101121.56
2023-05-23T21:18:24.519Z,101116.97
2023-05-23T21:21:26.035Z,101111.69
2023-05-23T21:24:27.602Z,101110.81
2023-05-23T21:27:29.189Z,101112.69
2023-05-23T21:30:30.724Z,101116.25
2023-05-23T21:33:32.346Z,101112.69
2023-05-23T21:36:33.865Z,101117.28
2023-05-23T21:39:50.060Z,101112.84
2023-05-23T21:42:53.270Z,101118.31
2023-05-23T21:45:54.822Z,101113.69
2023-05-23T21:48:56.359Z,101116.25
2023-05-23T21:51:58.187Z,101122.72
2023-05-23T21:54:59.687Z,101122.72
2023-05-23T21:58:01.178Z,101119.16
2023-05-23T22:01:02.707Z,101119.16
2023-05-23T22:04:04.330Z,101120.13
2023-05-23T22:07:06.051Z,101112.84
2023-05-23T22:10:08.154Z,101111.13
2023-05-23T22:13:09.943Z,101113.69
2023-05-23T22:16:11.519Z,101114.69
2023-05-23T22:19:18.042Z,101107.41
2023-05-23T22:22:19.645Z,101113.69
2023-05-23T22:25:22.892Z,101112.84
2023-05-23T22:28:24.402Z,101110.97
2023-05-23T22:31:26.391Z,101109.25
2023-05-23T22:34:28.081Z,101106.38
2023-05-23T22:37:29.570Z,101108.25
2023-05-23T22:40:31.090Z,101106.53
2023-05-23T22:43:32.648Z,101102.97
2023-05-23T22:46:34.200Z,101107.41
2023-05-23T22:49:36.351Z,101111.97
2023-05-23T22:52:38.628Z,101109.25
2023-05-23T22:55:40.182Z,101113.00
2023-05-23T22:58:41.715Z,101104.97
2023-05-23T23:01:43.435Z,101103.28
2023-05-23T23:04:45.113Z,101100.56
2023-05-23T23:07:47.816Z,101109.75
2023-05-23T23:10:49.313Z,101097.97
2023-05-23T23:13:50.800Z,101102.56
2023-05-23T23:16:53.320Z,101109.03
2023-05-23T23:19:55.530Z,101108.19
2023-05-23T23:22:57.586Z,101106.47
2023-05-23T23:25:59.491Z,101106.47
2023-05-23T23:29:03.037Z,101105.63
2023-05-23T23:32:05.303Z,101107.50
2023-05-23T23:35:07.307Z,101118.38
2023-05-23T23:38:08.772Z,101121.25
2023-05-23T23:41:10.752Z,101120.38
2023-05-23T23:44:12.288Z,101121.25
2023-05-23T23:47:14.048Z,101125.84
2023-05-23T23:50:15.735Z,101121.41
2023-05-23T23:53:17.991Z,101116.13
2023-05-23T23:56:19.825Z,101127.00
2023-05-23T23:59:21.408Z,101131.56
